LIMS

Details ICAO LIMS (QPZ)
Name PIACENZA
Region Italy
Timezone Europe/Rome (UTC+2.0)
Plans Departing 4
Arriving 13
Stats Elevation 456 ft / 139 m (AMSL)
Location 44.914428° 9.722125°
Runways 1
Magnetic Variation 2.642° E
Sunrise 2018-05-26 03:43:33 UTC / 2018-05-26 05:43:33 Local
Sunset 2018-05-26 18:55:37 UTC / 2018-05-26 20:55:37 Local
Advertisement - Login to hide

Runways

ID Width Length Bearing (true) Bearing (mag) Surface Threshold Offset Overrun Length
12 148 ft / 45 m 9,801 ft / 2,987 m 118.45° 115.81° Asphalt 848 ft / 258 m 0 ft / 0 m
30 148 ft / 45 m 9,801 ft / 2,987 m 298.47° 295.83° Asphalt 873 ft / 266 m 0 ft / 0 m

Map

Weather


0- 5 10 15 20 25 30 35+ Temperature / ° C

Clouds and Precipitation
Forecast for 2018-05-26 12:00 UTC. Updated 3 hours ago

Ground ~20,000 ft ~40,000 ft Winds

METAR

LIMS 261355Z 07006KT CAVOK 29/22 Q1017

TAF

Not found

Frequencies

Tower 136.07 MHz TWR
Approach 123.92 MHz APP
Tower 122.10 MHz TWR
Warning: Do not use this data for real-world aviation or navigation. No guarantee of current accuracy is given.